sensor_id;sensor_type;location;lat;lon;timestamp;pressure;altitude;pressure_sealevel;temperature;humidity
50732;BME280;36700;50.488;2.544;2023-05-23T00:01:57;101764.53;;;17.30;59.38
50732;BME280;36700;50.488;2.544;2023-05-23T00:04:23;101765.56;;;17.29;59.26
50732;BME280;36700;50.488;2.544;2023-05-23T00:06:52;101774.75;;;17.28;59.19
50732;BME280;36700;50.488;2.544;2023-05-23T00:09:18;101773.09;;;17.27;59.27
50732;BME280;36700;50.488;2.544;2023-05-23T00:11:44;101767.66;;;17.27;59.27
50732;BME280;36700;50.488;2.544;2023-05-23T00:14:11;101769.53;;;17.27;59.16
50732;BME280;36700;50.488;2.544;2023-05-23T00:16:39;101785.03;;;17.26;59.33
50732;BME280;36700;50.488;2.544;2023-05-23T00:19:06;101777.94;;;17.25;59.52
50732;BME280;36700;50.488;2.544;2023-05-23T00:21:32;101776.03;;;17.26;59.32
50732;BME280;36700;50.488;2.544;2023-05-23T00:23:58;101769.16;;;17.23;59.47
50732;BME280;36700;50.488;2.544;2023-05-23T00:26:24;101772.13;;;17.21;59.48
50732;BME280;36700;50.488;2.544;2023-05-23T00:28:54;101774.81;;;17.21;59.25
50732;BME280;36700;50.488;2.544;2023-05-23T00:31:21;101769.38;;;17.21;59.53
50732;BME280;36700;50.488;2.544;2023-05-23T00:33:47;101775.25;;;17.18;59.36
50732;BME280;36700;50.488;2.544;2023-05-23T00:36:13;101783.19;;;17.20;59.65
50732;BME280;36700;50.488;2.544;2023-05-23T00:38:39;101783.41;;;17.18;59.33
50732;BME280;36700;50.488;2.544;2023-05-23T00:41:05;101781.97;;;17.16;59.46
50732;BME280;36700;50.488;2.544;2023-05-23T00:43:31;101788.25;;;17.16;59.27
50732;BME280;36700;50.488;2.544;2023-05-23T00:45:58;101779.25;;;17.16;59.51
50732;BME280;36700;50.488;2.544;2023-05-23T00:48:24;101774.00;;;17.14;59.47
50732;BME280;36700;50.488;2.544;2023-05-23T00:50:51;101787.59;;;17.14;59.69
50732;BME280;36700;50.488;2.544;2023-05-23T00:53:17;101784.06;;;17.14;59.71
50732;BME280;36700;50.488;2.544;2023-05-23T00:55:43;101790.78;;;17.11;59.57
50732;BME280;36700;50.488;2.544;2023-05-23T00:58:10;101787.22;;;17.11;59.45
50732;BME280;36700;50.488;2.544;2023-05-23T01:00:37;101778.25;;;17.10;60.01
50732;BME280;36700;50.488;2.544;2023-05-23T01:03:03;101773.88;;;17.09;59.80
50732;BME280;36700;50.488;2.544;2023-05-23T01:05:30;101773.88;;;17.09;59.38
50732;BME280;36700;50.488;2.544;2023-05-23T01:07:56;101781.38;;;17.07;59.57
50732;BME280;36700;50.488;2.544;2023-05-23T01:10:25;101791.19;;;17.08;59.73
50732;BME280;36700;50.488;2.544;2023-05-23T01:15:33;101788.72;;;17.06;59.82
50732;BME280;36700;50.488;2.544;2023-05-23T01:18:06;101786.22;;;17.05;59.47
50732;BME280;36700;50.488;2.544;2023-05-23T01:20:47;101786.22;;;17.05;59.71
50732;BME280;36700;50.488;2.544;2023-05-23T01:29:03;101797.47;;;17.02;59.69
50732;BME280;36700;50.488;2.544;2023-05-23T01:31:36;101801.25;;;17.01;59.63
50732;BME280;36700;50.488;2.544;2023-05-23T01:34:05;101800.44;;;17.00;59.72
50732;BME280;36700;50.488;2.544;2023-05-23T01:36:33;101803.97;;;17.01;60.14
50732;BME280;36700;50.488;2.544;2023-05-23T01:39:02;101805.03;;;17.00;59.69
50732;BME280;36700;50.488;2.544;2023-05-23T01:41:28;101809.63;;;16.99;60.05
50732;BME280;36700;50.488;2.544;2023-05-23T01:43:54;101812.56;;;16.98;60.03
50732;BME280;36700;50.488;2.544;2023-05-23T01:46:21;101809.00;;;16.97;59.99
50732;BME280;36700;50.488;2.544;2023-05-23T01:48:48;101813.63;;;16.96;59.87
50732;BME280;36700;50.488;2.544;2023-05-23T01:51:14;101814.66;;;16.95;60.21
50732;BME280;36700;50.488;2.544;2023-05-23T01:53:42;101819.06;;;16.96;60.38
50732;BME280;36700;50.488;2.544;2023-05-23T01:56:08;101826.38;;;16.96;60.24
50732;BME280;36700;50.488;2.544;2023-05-23T01:58:34;101824.69;;;16.95;60.08
50732;BME280;36700;50.488;2.544;2023-05-23T02:01:00;101822.19;;;16.93;60.15
50732;BME280;36700;50.488;2.544;2023-05-23T02:03:26;101814.25;;;16.92;60.23
50732;BME280;36700;50.488;2.544;2023-05-23T02:05:52;101819.69;;;16.92;60.14
50732;BME280;36700;50.488;2.544;2023-05-23T02:08:18;101823.47;;;16.91;60.20
50732;BME280;36700;50.488;2.544;2023-05-23T02:10:43;101822.66;;;16.90;60.00
50732;BME280;36700;50.488;2.544;2023-05-23T02:13:10;101819.09;;;16.90;60.51
50732;BME280;36700;50.488;2.544;2023-05-23T02:15:35;101818.25;;;16.89;60.25
50732;BME280;36700;50.488;2.544;2023-05-23T02:18:02;101822.00;;;16.88;60.37
50732;BME280;36700;50.488;2.544;2023-05-23T02:20:28;101823.91;;;16.88;60.23
50732;BME280;36700;50.488;2.544;2023-05-23T02:22:54;101823.06;;;16.87;60.25
50732;BME280;36700;50.488;2.544;2023-05-23T02:25:20;101823.06;;;16.87;60.43
50732;BME280;36700;50.488;2.544;2023-05-23T02:27:46;101828.69;;;16.86;60.41
50732;BME280;36700;50.488;2.544;2023-05-23T02:30:12;101828.69;;;16.86;60.46
50732;BME280;36700;50.488;2.544;2023-05-23T02:32:38;101820.56;;;16.86;60.41
50732;BME280;36700;50.488;2.544;2023-05-23T02:35:05;101823.50;;;16.84;60.49
50732;BME280;36700;50.488;2.544;2023-05-23T02:37:31;101826.22;;;16.84;60.38
50732;BME280;36700;50.488;2.544;2023-05-23T02:39:56;101817.22;;;16.83;60.27
50732;BME280;36700;50.488;2.544;2023-05-23T02:42:22;101816.38;;;16.83;60.96
50732;BME280;36700;50.488;2.544;2023-05-23T02:44:48;101812.84;;;16.82;60.78
50732;BME280;36700;50.488;2.544;2023-05-23T02:47:14;101818.50;;;16.81;60.54
50732;BME280;36700;50.488;2.544;2023-05-23T02:49:40;101819.34;;;16.81;60.48
50732;BME280;36700;50.488;2.544;2023-05-23T02:52:06;101814.94;;;16.80;60.52
50732;BME280;36700;50.488;2.544;2023-05-23T02:54:32;101819.56;;;16.80;60.49
50732;BME280;36700;50.488;2.544;2023-05-23T02:56:58;101824.97;;;16.80;60.56
50732;BME280;36700;50.488;2.544;2023-05-23T02:59:24;101826.03;;;16.79;60.71
50732;BME280;36700;50.488;2.544;2023-05-23T03:01:51;101831.47;;;16.79;60.62
50732;BME280;36700;50.488;2.544;2023-05-23T03:04:17;101825.63;;;16.75;60.75
50732;BME280;36700;50.488;2.544;2023-05-23T03:06:43;101827.31;;;16.76;60.68
50732;BME280;36700;50.488;2.544;2023-05-23T03:09:09;101822.69;;;16.77;60.68
50732;BME280;36700;50.488;2.544;2023-05-23T03:11:36;101830.00;;;16.76;60.65
50732;BME280;36700;50.488;2.544;2023-05-23T03:14:02;101824.59;;;16.76;60.65
50732;BME280;36700;50.488;2.544;2023-05-23T03:16:27;101828.34;;;16.75;60.59
50732;BME280;36700;50.488;2.544;2023-05-23T03:18:53;101826.44;;;16.76;60.77
50732;BME280;36700;50.488;2.544;2023-05-23T03:21:19;101826.66;;;16.74;61.05
50732;BME280;36700;50.488;2.544;2023-05-23T03:23:45;101832.09;;;16.74;60.83
50732;BME280;36700;50.488;2.544;2023-05-23T03:26:11;101827.72;;;16.73;60.73
50732;BME280;36700;50.488;2.544;2023-05-23T03:28:37;101828.56;;;16.74;60.88
50732;BME280;36700;50.488;2.544;2023-05-23T03:31:03;101821.47;;;16.73;60.89
50732;BME280;36700;50.488;2.544;2023-05-23T03:33:29;101830.63;;;16.72;60.91
50732;BME280;36700;50.488;2.544;2023-05-23T03:35:55;101835.25;;;16.71;61.02
50732;BME280;36700;50.488;2.544;2023-05-23T03:38:22;101832.53;;;16.71;60.98
50732;BME280;36700;50.488;2.544;2023-05-23T03:40:48;101823.78;;;16.69;60.78
50732;BME280;36700;50.488;2.544;2023-05-23T03:43:14;101837.13;;;16.71;61.10
50732;BME280;36700;50.488;2.544;2023-05-23T03:45:40;101830.03;;;16.69;61.08
50732;BME280;36700;50.488;2.544;2023-05-23T03:48:06;101834.66;;;16.69;60.80
50732;BME280;36700;50.488;2.544;2023-05-23T03:50:32;101833.78;;;16.68;60.70
50732;BME280;36700;50.488;2.544;2023-05-23T03:52:58;101839.44;;;16.67;60.73
50732;BME280;36700;50.488;2.544;2023-05-23T03:55:24;101834.84;;;16.67;61.03
50732;BME280;36700;50.488;2.544;2023-05-23T03:57:50;101834.00;;;16.67;60.79
50732;BME280;36700;50.488;2.544;2023-05-23T04:00:19;101838.63;;;16.66;60.71
50732;BME280;36700;50.488;2.544;2023-05-23T04:02:45;101832.34;;;16.66;60.83
50732;BME280;36700;50.488;2.544;2023-05-23T04:05:12;101841.34;;;16.66;61.02
50732;BME280;36700;50.488;2.544;2023-05-23T04:07:38;101846.97;;;16.65;60.75
50732;BME280;36700;50.488;2.544;2023-05-23T04:10:05;101837.97;;;16.64;60.77
50732;BME280;36700;50.488;2.544;2023-05-23T04:12:31;101840.69;;;16.64;61.08
50732;BME280;36700;50.488;2.544;2023-05-23T04:14:57;101842.59;;;16.64;60.82
50732;BME280;36700;50.488;2.544;2023-05-23T04:17:23;101841.75;;;16.63;61.23
50732;BME280;36700;50.488;2.544;2023-05-23T04:19:51;101841.97;;;16.62;60.83
50732;BME280;36700;50.488;2.544;2023-05-23T04:22:17;101844.69;;;16.62;61.14
50732;BME280;36700;50.488;2.544;2023-05-23T04:24:43;101853.88;;;16.61;60.95
50732;BME280;36700;50.488;2.544;2023-05-23T04:27:09;101853.06;;;16.60;61.17
50732;BME280;36700;50.488;2.544;2023-05-23T04:29:34;101853.06;;;16.60;60.98
50732;BME280;36700;50.488;2.544;2023-05-23T04:32:03;101861.19;;;16.60;61.05
50732;BME280;36700;50.488;2.544;2023-05-23T04:34:31;101857.66;;;16.60;61.11
50732;BME280;36700;50.488;2.544;2023-05-23T04:36:59;101859.50;;;16.59;61.20
50732;BME280;36700;50.488;2.544;2023-05-23T04:39:28;101864.94;;;16.59;61.19
50732;BME280;36700;50.488;2.544;2023-05-23T04:41:57;101861.63;;;16.57;61.44
50732;BME280;36700;50.488;2.544;2023-05-23T04:44:24;101867.06;;;16.57;60.87
50732;BME280;36700;50.488;2.544;2023-05-23T04:46:51;101871.66;;;16.57;61.05
50732;BME280;36700;50.488;2.544;2023-05-23T04:49:17;101869.16;;;16.55;60.99
50732;BME280;36700;50.488;2.544;2023-05-23T04:51:46;101870.81;;;16.56;61.18
50732;BME280;36700;50.488;2.544;2023-05-23T04:54:11;101877.28;;;16.55;61.38
50732;BME280;36700;50.488;2.544;2023-05-23T04:56:37;101882.72;;;16.55;61.47
50732;BME280;36700;50.488;2.544;2023-05-23T04:59:03;101876.44;;;16.54;60.97
50732;BME280;36700;50.488;2.544;2023-05-23T05:01:29;101880.22;;;16.53;61.16
50732;BME280;36700;50.488;2.544;2023-05-23T05:03:55;101879.38;;;16.53;61.33
50732;BME280;36700;50.488;2.544;2023-05-23T05:06:22;101881.28;;;16.52;61.16
50732;BME280;36700;50.488;2.544;2023-05-23T05:08:48;101888.56;;;16.52;60.67
50732;BME280;36700;50.488;2.544;2023-05-23T05:11:13;101891.28;;;16.52;61.04
50732;BME280;36700;50.488;2.544;2023-05-23T05:13:40;101894.00;;;16.52;60.85
50732;BME280;36700;50.488;2.544;2023-05-23T05:16:06;101898.63;;;16.51;61.17
50732;BME280;36700;50.488;2.544;2023-05-23T05:18:32;101890.47;;;16.51;61.04
50732;BME280;36700;50.488;2.544;2023-05-23T05:20:58;101899.66;;;16.50;61.09
50732;BME280;36700;50.488;2.544;2023-05-23T05:23:25;101903.19;;;16.51;61.12
50732;BME280;36700;50.488;2.544;2023-05-23T05:25:53;101910.72;;;16.49;61.00
50732;BME280;36700;50.488;2.544;2023-05-23T05:28:21;101914.25;;;16.49;61.15
50732;BME280;36700;50.488;2.544;2023-05-23T05:30:47;101915.09;;;16.50;61.08
50732;BME280;36700;50.488;2.544;2023-05-23T05:33:13;101915.09;;;16.50;61.11
50732;BME280;36700;50.488;2.544;2023-05-23T05:35:39;101924.31;;;16.49;61.05
50732;BME280;36700;50.488;2.544;2023-05-23T05:38:05;101925.34;;;16.48;61.20
50732;BME280;36700;50.488;2.544;2023-05-23T05:40:33;101927.03;;;16.49;60.95
50732;BME280;36700;50.488;2.544;2023-05-23T05:42:59;101927.03;;;16.49;61.18
50732;BME280;36700;50.488;2.544;2023-05-23T05:45:25;101925.56;;;16.46;61.20
50732;BME280;36700;50.488;2.544;2023-05-23T05:47:51;101938.09;;;16.47;61.20
50732;BME280;36700;50.488;2.544;2023-05-23T05:50:17;101931.84;;;16.40;61.20
50732;BME280;36700;50.488;2.544;2023-05-23T05:52:45;101942.91;;;16.38;61.29
50732;BME280;36700;50.488;2.544;2023-05-23T05:55:11;101940.38;;;16.37;60.97
50732;BME280;36700;50.488;2.544;2023-05-23T05:57:38;101938.53;;;16.37;61.03
50732;BME280;36700;50.488;2.544;2023-05-23T06:00:06;101936.63;;;16.38;61.02
50732;BME280;36700;50.488;2.544;2023-05-23T06:02:38;101943.75;;;16.39;61.11
50732;BME280;36700;50.488;2.544;2023-05-23T06:05:05;101947.91;;;16.41;60.81
50732;BME280;36700;50.488;2.544;2023-05-23T06:07:33;101946.22;;;16.40;60.73
50732;BME280;36700;50.488;2.544;2023-05-23T06:09:59;101955.00;;;16.42;61.01
50732;BME280;36700;50.488;2.544;2023-05-23T06:12:25;101958.97;;;16.40;60.46
50732;BME280;36700;50.488;2.544;2023-05-23T06:14:51;101957.09;;;16.40;60.76
50732;BME280;36700;50.488;2.544;2023-05-23T06:17:17;101957.31;;;16.39;61.08
50732;BME280;36700;50.488;2.544;2023-05-23T06:19:43;101962.94;;;16.37;61.00
50732;BME280;36700;50.488;2.544;2023-05-23T06:22:09;101959.38;;;16.37;60.69
50732;BME280;36700;50.488;2.544;2023-05-23T06:24:35;101960.25;;;16.37;60.96
50732;BME280;36700;50.488;2.544;2023-05-23T06:27:00;101965.88;;;16.36;61.25
50732;BME280;36700;50.488;2.544;2023-05-23T06:29:26;101964.00;;;16.36;60.71
50732;BME280;36700;50.488;2.544;2023-05-23T06:31:52;101960.44;;;16.36;60.82
50732;BME280;36700;50.488;2.544;2023-05-23T06:34:18;101969.19;;;16.38;60.54
50732;BME280;36700;50.488;2.544;2023-05-23T06:36:44;101961.06;;;16.38;60.89
50732;BME280;36700;50.488;2.544;2023-05-23T06:39:11;101951.03;;;16.38;59.83
50732;BME280;36700;50.488;2.544;2023-05-23T06:41:38;101953.75;;;16.38;60.38
50732;BME280;36700;50.488;2.544;2023-05-23T06:44:04;101961.06;;;16.38;60.69
50732;BME280;36700;50.488;2.544;2023-05-23T06:46:30;101959.63;;;16.35;60.47
50732;BME280;36700;50.488;2.544;2023-05-23T06:48:56;101958.13;;;16.39;60.49
50732;BME280;36700;50.488;2.544;2023-05-23T06:51:22;101962.94;;;16.37;60.65
50732;BME280;36700;50.488;2.544;2023-05-23T06:53:49;101962.09;;;16.37;60.42
50732;BME280;36700;50.488;2.544;2023-05-23T06:56:17;101961.50;;;16.35;60.64
50732;BME280;36700;50.488;2.544;2023-05-23T06:58:43;101961.28;;;16.36;60.62
50732;BME280;36700;50.488;2.544;2023-05-23T07:01:09;101969.19;;;16.38;60.43
50732;BME280;36700;50.488;2.544;2023-05-23T07:03:37;101963.16;;;16.36;60.33
50732;BME280;36700;50.488;2.544;2023-05-23T07:06:06;101967.13;;;16.40;60.38
50732;BME280;36700;50.488;2.544;2023-05-23T07:08:32;101973.38;;;16.47;59.92
50732;BME280;36700;50.488;2.544;2023-05-23T07:10:59;101965.88;;;16.42;59.97
50732;BME280;36700;50.488;2.544;2023-05-23T07:13:25;101967.34;;;16.45;60.13
50732;BME280;36700;50.488;2.544;2023-05-23T07:15:55;101966.88;;;16.75;58.98
50732;BME280;36700;50.488;2.544;2023-05-23T07:18:22;101985.06;;;16.61;59.41
50732;BME280;36700;50.488;2.544;2023-05-23T07:20:48;101979.38;;;16.90;58.55
50732;BME280;36700;50.488;2.544;2023-05-23T07:23:14;101977.28;;;16.92;58.55
50732;BME280;36700;50.488;2.544;2023-05-23T07:25:40;101985.69;;;16.70;58.98
50732;BME280;36700;50.488;2.544;2023-05-23T07:28:08;101987.59;;;16.56;59.37
50732;BME280;36700;50.488;2.544;2023-05-23T07:30:34;101998.88;;;16.46;59.87
50732;BME280;36700;50.488;2.544;2023-05-23T07:33:00;102003.25;;;16.40;59.68
50732;BME280;36700;50.488;2.544;2023-05-23T07:35:26;101999.06;;;16.38;59.74
50732;BME280;36700;50.488;2.544;2023-05-23T07:37:52;101999.28;;;16.36;60.08
50732;BME280;36700;50.488;2.544;2023-05-23T07:40:19;102009.31;;;16.36;60.23
50732;BME280;36700;50.488;2.544;2023-05-23T07:42:45;102007.03;;;16.33;60.02
50732;BME280;36700;50.488;2.544;2023-05-23T07:45:11;102007.41;;;16.29;60.13
50732;BME280;36700;50.488;2.544;2023-05-23T07:47:37;102009.09;;;16.31;60.08
50732;BME280;36700;50.488;2.544;2023-05-23T07:50:04;102003.66;;;16.31;60.02
50732;BME280;36700;50.488;2.544;2023-05-23T07:52:31;102009.31;;;16.29;60.54
50732;BME280;36700;50.488;2.544;2023-05-23T07:54:58;102013.91;;;16.28;60.44
50732;BME280;36700;50.488;2.544;2023-05-23T07:57:24;102015.56;;;16.29;60.24
50732;BME280;36700;50.488;2.544;2023-05-23T07:59:51;102009.31;;;16.29;60.30
50732;BME280;36700;50.488;2.544;2023-05-23T08:02:18;102014.94;;;16.27;60.42
50732;BME280;36700;50.488;2.544;2023-05-23T08:04:47;102017.66;;;16.27;60.06
50732;BME280;36700;50.488;2.544;2023-05-23T08:07:14;102035.81;;;16.27;60.14
50732;BME280;36700;50.488;2.544;2023-05-23T08:09:41;102014.28;;;16.25;60.28
50732;BME280;36700;50.488;2.544;2023-05-23T08:12:08;102023.28;;;16.26;60.08
50732;BME280;36700;50.488;2.544;2023-05-23T08:14:34;102023.28;;;16.26;60.17
50732;BME280;36700;50.488;2.544;2023-05-23T08:17:01;102023.50;;;16.24;60.39
50732;BME280;36700;50.488;2.544;2023-05-23T08:19:27;102035.19;;;16.25;59.88
50732;BME280;36700;50.488;2.544;2023-05-23T08:21:53;102032.69;;;16.23;59.68
50732;BME280;36700;50.488;2.544;2023-05-23T08:24:21;102034.56;;;16.23;60.07
50732;BME280;36700;50.488;2.544;2023-05-23T08:26:48;102023.72;;;16.23;60.28
50732;BME280;36700;50.488;2.544;2023-05-23T08:29:14;102029.53;;;16.20;60.11
50732;BME280;36700;50.488;2.544;2023-05-23T08:31:40;102030.16;;;16.22;60.22
50732;BME280;36700;50.488;2.544;2023-05-23T08:34:06;102032.06;;;16.21;59.90
50732;BME280;36700;50.488;2.544;2023-05-23T08:36:33;102038.31;;;16.22;60.21
50732;BME280;36700;50.488;2.544;2023-05-23T08:39:02;102038.53;;;16.20;59.92
50732;BME280;36700;50.488;2.544;2023-05-23T08:41:29;102035.38;;;16.17;60.33
50732;BME280;36700;50.488;2.544;2023-05-23T08:43:56;102046.03;;;16.18;60.14
50732;BME280;36700;50.488;2.544;2023-05-23T08:46:22;102046.88;;;16.19;60.30
50732;BME280;36700;50.488;2.544;2023-05-23T08:48:53;102051.44;;;16.18;60.31
50732;BME280;36700;50.488;2.544;2023-05-23T08:51:25;102050.63;;;16.18;60.32
50732;BME280;36700;50.488;2.544;2023-05-23T08:53:52;102045.22;;;16.18;60.34
50732;BME280;36700;50.488;2.544;2023-05-23T08:56:19;102057.94;;;16.17;60.22
50732;BME280;36700;50.488;2.544;2023-05-23T08:58:45;102051.03;;;16.14;60.15
50732;BME280;36700;50.488;2.544;2023-05-23T09:01:13;102048.31;;;16.14;60.27
50732;BME280;36700;50.488;2.544;2023-05-23T09:03:40;102048.13;;;16.16;60.25
50732;BME280;36700;50.488;2.544;2023-05-23T09:06:09;102050.22;;;16.14;60.21
50732;BME280;36700;50.488;2.544;2023-05-23T09:08:36;102051.03;;;16.14;60.08
50732;BME280;36700;50.488;2.544;2023-05-23T09:11:04;102045.81;;;16.13;60.44
50732;BME280;36700;50.488;2.544;2023-05-23T09:13:31;102044.13;;;16.12;59.95
50732;BME280;36700;50.488;2.544;2023-05-23T09:18:36;102048.09;;;16.09;60.08
50732;BME280;36700;50.488;2.544;2023-05-23T09:21:02;102047.69;;;16.12;59.96
50732;BME280;36700;50.488;2.544;2023-05-23T09:23:32;102052.28;;;16.12;60.36
50732;BME280;36700;50.488;2.544;2023-05-23T09:26:06;102058.75;;;16.11;60.27
50732;BME280;36700;50.488;2.544;2023-05-23T09:28:33;102061.47;;;16.11;60.19
50732;BME280;36700;50.488;2.544;2023-05-23T09:31:00;102051.84;;;16.08;60.12
50732;BME280;36700;50.488;2.544;2023-05-23T09:33:39;102058.75;;;16.11;60.29
50732;BME280;36700;50.488;2.544;2023-05-23T09:36:06;102058.75;;;16.11;60.27
50732;BME280;36700;50.488;2.544;2023-05-23T09:38:36;102065.03;;;16.11;60.14
50732;BME280;36700;50.488;2.544;2023-05-23T09:41:03;102061.47;;;16.11;60.27
50732;BME280;36700;50.488;2.544;2023-05-23T09:43:28;102065.03;;;16.11;60.10
50732;BME280;36700;50.488;2.544;2023-05-23T09:46:00;102059.59;;;16.11;60.11
50732;BME280;36700;50.488;2.544;2023-05-23T09:48:28;102061.47;;;16.11;60.20
50732;BME280;36700;50.488;2.544;2023-05-23T09:50:58;102064.19;;;16.11;60.18
50732;BME280;36700;50.488;2.544;2023-05-23T09:53:24;102065.22;;;16.10;60.27
50732;BME280;36700;50.488;2.544;2023-05-23T09:55:50;102054.38;;;16.10;60.21
50732;BME280;36700;50.488;2.544;2023-05-23T09:58:22;102058.75;;;16.11;60.01
50732;BME280;36700;50.488;2.544;2023-05-23T10:00:49;102062.31;;;16.11;60.18
50732;BME280;36700;50.488;2.544;2023-05-23T10:03:21;102063.34;;;16.10;60.22
50732;BME280;36700;50.488;2.544;2023-05-23T10:05:52;102061.47;;;16.11;60.18
50732;BME280;36700;50.488;2.544;2023-05-23T10:08:24;102063.34;;;16.10;60.24
50732;BME280;36700;50.488;2.544;2023-05-23T10:13:21;102069.59;;;16.11;59.78
50732;BME280;36700;50.488;2.544;2023-05-23T10:15:54;102066.03;;;16.10;60.05
50732;BME280;36700;50.488;2.544;2023-05-23T10:18:29;102071.69;;;16.09;60.02
50732;BME280;36700;50.488;2.544;2023-05-23T10:21:00;102062.50;;;16.10;60.17
50732;BME280;36700;50.488;2.544;2023-05-23T10:23:30;102065.44;;;16.08;60.05
50732;BME280;36700;50.488;2.544;2023-05-23T10:25:58;102067.31;;;16.08;59.99
50732;BME280;36700;50.488;2.544;2023-05-23T10:28:24;102076.47;;;16.07;59.96
50732;BME280;36700;50.488;2.544;2023-05-23T10:30:51;102069.19;;;16.07;59.92
50732;BME280;36700;50.488;2.544;2023-05-23T10:33:18;102077.31;;;16.07;60.16
50732;BME280;36700;50.488;2.544;2023-05-23T10:36:27;102083.38;;;16.09;60.12
50732;BME280;36700;50.488;2.544;2023-05-23T10:39:04;102071.28;;;16.12;59.79
50732;BME280;36700;50.488;2.544;2023-05-23T10:41:50;102071.94;;;16.14;59.72
50732;BME280;36700;50.488;2.544;2023-05-23T10:44:28;102064.59;;;16.14;59.76
50732;BME280;36700;50.488;2.544;2023-05-23T10:46:57;102068.16;;;16.15;59.63
50732;BME280;36700;50.488;2.544;2023-05-23T10:49:38;102072.53;;;16.16;59.63
50732;BME280;36700;50.488;2.544;2023-05-23T10:52:05;102076.72;;;16.19;59.35
50732;BME280;36700;50.488;2.544;2023-05-23T10:54:54;102073.16;;;16.18;59.45
50732;BME280;36700;50.488;2.544;2023-05-23T10:57:24;102072.13;;;16.19;59.35
50732;BME280;36700;50.488;2.544;2023-05-23T10:59:52;102074.84;;;16.19;59.27
50732;BME280;36700;50.488;2.544;2023-05-23T11:02:24;102067.53;;;16.20;59.51
50732;BME280;36700;50.488;2.544;2023-05-23T11:05:17;102070.25;;;16.20;59.33
50732;BME280;36700;50.488;2.544;2023-05-23T11:07:43;102073.81;;;16.20;59.53
50732;BME280;36700;50.488;2.544;2023-05-23T11:10:10;102069.41;;;16.19;59.51
50732;BME280;36700;50.488;2.544;2023-05-23T11:12:38;102070.66;;;16.17;59.47
50732;BME280;36700;50.488;2.544;2023-05-23T11:17:52;102075.06;;;16.18;59.69
50732;BME280;36700;50.488;2.544;2023-05-23T11:20:19;102061.50;;;16.18;59.63
50732;BME280;36700;50.488;2.544;2023-05-23T11:22:55;102060.44;;;16.19;59.46
50732;BME280;36700;50.488;2.544;2023-05-23T11:25:39;102047.91;;;16.11;59.33
50732;BME280;36700;50.488;2.544;2023-05-23T11:28:06;102055.84;;;16.19;59.49
50732;BME280;36700;50.488;2.544;2023-05-23T11:30:34;102061.91;;;16.21;59.28
50732;BME280;36700;50.488;2.544;2023-05-23T11:33:05;102060.03;;;16.22;59.29
50732;BME280;36700;50.488;2.544;2023-05-23T11:35:34;102066.28;;;16.22;59.07
50732;BME280;36700;50.488;2.544;2023-05-23T11:38:02;102069.00;;;16.22;59.47
50732;BME280;36700;50.488;2.544;2023-05-23T11:40:37;102066.09;;;16.24;59.28
50732;BME280;36700;50.488;2.544;2023-05-23T11:43:04;102067.34;;;16.21;59.45
50732;BME280;36700;50.488;2.544;2023-05-23T11:45:31;102066.69;;;16.19;59.46
50732;BME280;36700;50.488;2.544;2023-05-23T11:48:01;102068.16;;;16.22;59.84
50732;BME280;36700;50.488;2.544;2023-05-23T11:50:29;102076.31;;;16.22;59.45
50732;BME280;36700;50.488;2.544;2023-05-23T11:52:54;102079.88;;;16.22;59.24
50732;BME280;36700;50.488;2.544;2023-05-23T11:55:21;102074.44;;;16.22;59.50
50732;BME280;36700;50.488;2.544;2023-05-23T11:57:48;102071.91;;;16.21;59.61
50732;BME280;36700;50.488;2.544;2023-05-23T12:00:15;102076.09;;;16.23;59.36
50732;BME280;36700;50.488;2.544;2023-05-23T12:02:42;102079.88;;;16.22;59.00
50732;BME280;36700;50.488;2.544;2023-05-23T12:05:12;102071.09;;;16.20;58.99
50732;BME280;36700;50.488;2.544;2023-05-23T12:07:44;102071.72;;;16.22;58.84
50732;BME280;36700;50.488;2.544;2023-05-23T12:10:11;102077.16;;;16.22;58.67
50732;BME280;36700;50.488;2.544;2023-05-23T12:12:37;102059.19;;;16.21;58.87
50732;BME280;36700;50.488;2.544;2023-05-23T12:15:03;102066.50;;;16.21;58.74
50732;BME280;36700;50.488;2.544;2023-05-23T12:17:30;102057.72;;;16.19;58.87
50732;BME280;36700;50.488;2.544;2023-05-23T12:19:56;102066.69;;;16.19;58.57
50732;BME280;36700;50.488;2.544;2023-05-23T12:22:22;102071.91;;;16.21;58.59
50732;BME280;36700;50.488;2.544;2023-05-23T12:24:55;102070.88;;;16.22;58.49
50732;BME280;36700;50.488;2.544;2023-05-23T12:27:33;102074.63;;;16.21;58.30
50732;BME280;36700;50.488;2.544;2023-05-23T12:30:18;102065.88;;;16.19;58.21
50732;BME280;36700;50.488;2.544;2023-05-23T12:32:45;102073.59;;;16.22;58.13
50732;BME280;36700;50.488;2.544;2023-05-23T12:35:13;102074.44;;;16.22;58.09
50732;BME280;36700;50.488;2.544;2023-05-23T12:37:42;102064.44;;;16.23;58.34
50732;BME280;36700;50.488;2.544;2023-05-23T12:40:16;102073.38;;;16.23;58.26
50732;BME280;36700;50.488;2.544;2023-05-23T12:42:53;102082.78;;;16.21;57.71
50732;BME280;36700;50.488;2.544;2023-05-23T12:45:21;102086.16;;;16.23;58.12
50732;BME280;36700;50.488;2.544;2023-05-23T12:47:48;102079.88;;;16.22;57.96
50732;BME280;36700;50.488;2.544;2023-05-23T12:50:14;102075.28;;;16.23;57.96
50732;BME280;36700;50.488;2.544;2023-05-23T12:52:40;102074.44;;;16.22;58.13
50732;BME280;36700;50.488;2.544;2023-05-23T12:55:07;102072.56;;;16.23;58.21
50732;BME280;36700;50.488;2.544;2023-05-23T12:57:34;102069.84;;;16.23;58.06
50732;BME280;36700;50.488;2.544;2023-05-23T13:00:00;102065.25;;;16.23;57.71
50732;BME280;36700;50.488;2.544;2023-05-23T13:02:27;102067.97;;;16.23;57.63
50732;BME280;36700;50.488;2.544;2023-05-23T13:04:53;102075.28;;;16.23;57.73
50732;BME280;36700;50.488;2.544;2023-05-23T13:07:19;102063.59;;;16.22;58.04
50732;BME280;36700;50.488;2.544;2023-05-23T13:09:45;102060.88;;;16.22;57.96